createdAt,value
2018-04-27T00:01:23.622Z,1.90
2018-04-27T00:03:51.101Z,1.77
2018-04-27T00:06:18.597Z,1.83
2018-04-27T00:08:46.089Z,2.00
2018-04-27T00:11:14.338Z,2.53
2018-04-27T00:13:42.660Z,2.03
2018-04-27T00:16:10.155Z,2.00
2018-04-27T00:18:37.638Z,2.07
2018-04-27T00:21:05.898Z,2.27
2018-04-27T00:23:33.383Z,1.90
2018-04-27T00:26:01.629Z,1.87
2018-04-27T00:28:29.119Z,2.00
2018-04-27T00:30:57.390Z,1.90
2018-04-27T00:33:25.629Z,2.33
2018-04-27T00:35:53.205Z,2.20
2018-04-27T00:38:20.693Z,1.70
2018-04-27T00:40:48.176Z,2.13
2018-04-27T00:43:15.656Z,1.70
2018-04-27T00:45:43.145Z,2.50
2018-04-27T00:48:10.630Z,1.80
2018-04-27T00:50:38.877Z,1.70
2018-04-27T00:53:14.185Z,2.13
2018-04-27T00:55:41.660Z,1.77
2018-04-27T00:58:09.153Z,1.70
2018-04-27T01:00:37.402Z,2.00
2018-04-27T01:03:04.888Z,2.20
2018-04-27T01:05:33.141Z,1.90
2018-04-27T01:08:00.633Z,1.50
2018-04-27T01:10:28.876Z,1.83
2018-04-27T01:12:56.365Z,1.80
2018-04-27T01:15:24.617Z,1.80
2018-04-27T01:17:52.104Z,1.70
2018-04-27T01:20:20.348Z,1.50
2018-04-27T01:22:47.836Z,1.93
2018-04-27T01:25:15.322Z,2.20
2018-04-27T01:27:42.809Z,2.00
2018-04-27T01:30:10.722Z,1.93
2018-04-27T01:32:38.213Z,1.90
2018-04-27T01:35:05.697Z,1.97
2018-04-27T01:37:33.189Z,1.63
2018-04-27T01:40:00.680Z,2.00
2018-04-27T01:42:28.179Z,2.20
2018-04-27T01:44:55.654Z,2.30
2018-04-27T01:47:23.953Z,2.07
2018-04-27T01:49:51.412Z,1.80
2018-04-27T01:52:19.660Z,2.20
2018-04-27T01:54:47.146Z,2.33
2018-04-27T01:57:15.399Z,2.10
2018-04-27T01:59:42.887Z,2.40
2018-04-27T02:02:10.391Z,1.83
2018-04-27T02:04:37.878Z,1.80
2018-04-27T02:07:05.376Z,1.97
2018-04-27T02:09:32.866Z,2.10
2018-04-27T02:12:00.358Z,1.97
2018-04-27T02:14:28.628Z,2.33
2018-04-27T02:16:56.117Z,2.27
2018-04-27T02:19:23.610Z,2.37
2018-04-27T02:21:51.112Z,2.20
2018-04-27T02:24:19.373Z,2.37
2018-04-27T02:26:46.875Z,2.53
2018-04-27T02:29:14.378Z,2.50
2018-04-27T02:31:41.879Z,2.37
2018-04-27T02:34:09.375Z,2.30
2018-04-27T02:36:36.857Z,1.90
2018-04-27T02:39:04.364Z,1.93
2018-04-27T02:41:31.845Z,2.80
2018-04-27T02:43:59.346Z,2.60
2018-04-27T02:46:27.600Z,2.63
2018-04-27T02:48:55.087Z,3.00
2018-04-27T02:51:22.571Z,2.30
2018-04-27T02:53:50.211Z,2.10
2018-04-27T02:56:17.709Z,2.63
2018-04-27T02:58:45.194Z,2.23
2018-04-27T03:01:12.692Z,2.77
2018-04-27T03:03:40.197Z,2.50
2018-04-27T03:06:07.689Z,2.90
2018-04-27T03:08:35.954Z,2.60
2018-04-27T03:11:03.447Z,2.60
2018-04-27T03:13:30.941Z,2.50
2018-04-27T03:15:58.431Z,3.10
2018-04-27T03:18:26.846Z,2.10
2018-04-27T03:20:54.339Z,2.70
2018-04-27T03:23:21.854Z,3.23
2018-04-27T03:25:49.355Z,2.87
2018-04-27T03:28:16.858Z,3.30
2018-04-27T03:30:44.355Z,2.63
2018-04-27T03:33:11.855Z,2.97
2018-04-27T03:35:40.105Z,2.67
2018-04-27T03:38:07.594Z,2.33
2018-04-27T03:40:35.845Z,2.47
2018-04-27T03:43:03.458Z,2.40
2018-04-27T03:45:30.953Z,2.77
2018-04-27T03:47:59.228Z,2.20
2018-04-27T03:50:26.738Z,2.10
2018-04-27T03:52:54.244Z,2.53
2018-04-27T03:55:21.725Z,3.10
2018-04-27T03:57:49.224Z,3.10
2018-04-27T04:00:28.560Z,4.00
2018-04-27T04:03:07.883Z,4.33
2018-04-27T04:05:35.393Z,3.23
2018-04-27T04:08:02.928Z,4.30
2018-04-27T04:10:30.460Z,3.30
2018-04-27T04:12:57.997Z,2.60
2018-04-27T04:15:26.314Z,3.40
2018-04-27T04:17:53.864Z,3.20
2018-04-27T04:20:21.393Z,3.23
2018-04-27T04:22:48.935Z,2.93
2018-04-27T04:25:16.460Z,3.23
2018-04-27T04:27:44.001Z,2.90
2018-04-27T04:30:11.548Z,3.17
2018-04-27T04:32:39.068Z,3.60
2018-04-27T04:35:07.375Z,3.20
2018-04-27T04:37:34.902Z,3.30
2018-04-27T04:40:02.420Z,3.10
2018-04-27T04:42:29.934Z,2.90
2018-04-27T04:44:58.231Z,3.43
2018-04-27T04:47:25.747Z,3.03
2018-04-27T04:49:53.285Z,2.93
2018-04-27T04:52:20.913Z,3.03
2018-04-27T04:54:48.420Z,3.57
2018-04-27T04:57:15.966Z,3.73
2018-04-27T04:59:43.506Z,3.90
2018-04-27T05:02:11.055Z,3.73
2018-04-27T05:04:38.590Z,3.60
2018-04-27T05:07:06.849Z,4.00
2018-04-27T05:09:34.350Z,4.53
2018-04-27T05:12:01.840Z,4.40
2018-04-27T05:14:29.342Z,4.03
2018-04-27T05:16:57.604Z,3.70
2018-04-27T05:19:25.886Z,4.23
2018-04-27T05:21:54.136Z,3.50
2018-04-27T05:24:21.663Z,3.27
2018-04-27T05:26:49.160Z,3.90
2018-04-27T05:29:16.653Z,3.57
2018-04-27T05:31:44.206Z,4.00
2018-04-27T05:34:12.467Z,4.37
2018-04-27T05:36:39.967Z,4.00
2018-04-27T05:39:07.532Z,4.13
2018-04-27T05:41:35.052Z,4.80
2018-04-27T05:44:02.615Z,4.37
2018-04-27T05:46:30.238Z,4.60
2018-04-27T05:48:57.944Z,4.80
2018-04-27T05:51:25.434Z,5.00
2018-04-27T05:53:52.981Z,5.00
2018-04-27T05:56:20.550Z,4.93
2018-04-27T05:58:48.096Z,4.63
2018-04-27T06:01:15.648Z,4.73
2018-04-27T06:03:56.099Z,5.50
2018-04-27T06:06:23.652Z,5.07
2018-04-27T06:08:51.179Z,5.07
2018-04-27T06:11:18.743Z,5.10
2018-04-27T06:13:46.347Z,5.13
2018-04-27T06:16:13.911Z,4.20
2018-04-27T06:18:41.476Z,4.03
2018-04-27T06:21:09.085Z,4.30
2018-04-27T06:23:36.653Z,4.30
2018-04-27T06:26:05.027Z,3.57
2018-04-27T06:28:34.222Z,3.60
2018-04-27T06:31:01.769Z,3.77
2018-04-27T06:33:29.288Z,3.40
2018-04-27T06:35:56.840Z,3.00
2018-04-27T06:38:24.403Z,3.53
2018-04-27T06:40:52.016Z,2.97
2018-04-27T06:43:19.543Z,3.20
2018-04-27T06:45:47.093Z,3.60
2018-04-27T06:48:14.614Z,3.83
2018-04-27T06:50:42.183Z,3.60
2018-04-27T06:53:09.741Z,3.73
2018-04-27T06:55:37.301Z,3.60
2018-04-27T06:58:04.872Z,3.53
2018-04-27T07:00:32.406Z,3.60
2018-04-27T07:03:00.727Z,4.13
2018-04-27T07:05:28.316Z,3.70
2018-04-27T07:07:55.854Z,3.63
2018-04-27T07:10:23.399Z,4.07
2018-04-27T07:12:50.947Z,3.37
2018-04-27T07:15:18.492Z,3.30
2018-04-27T07:17:46.040Z,3.20
2018-04-27T07:20:14.372Z,3.27
2018-04-27T07:22:42.430Z,3.10
2018-04-27T07:25:10.400Z,3.13
2018-04-27T07:27:38.009Z,3.40
2018-04-27T07:30:05.556Z,2.90
2018-04-27T07:32:33.132Z,3.63
2018-04-27T07:35:01.427Z,3.00
2018-04-27T07:37:29.004Z,2.90
2018-04-27T07:39:56.540Z,2.67
2018-04-27T07:42:24.064Z,2.50
2018-04-27T07:44:51.604Z,3.23
2018-04-27T07:47:19.139Z,3.33
2018-04-27T07:49:46.696Z,3.80
2018-04-27T07:52:14.243Z,2.93
2018-04-27T07:54:41.847Z,3.23
2018-04-27T07:57:09.458Z,2.93
2018-04-27T07:59:37.016Z,3.10
2018-04-27T08:02:04.570Z,3.60
2018-04-27T08:04:32.105Z,3.47
2018-04-27T08:06:59.715Z,3.10
2018-04-27T08:09:27.291Z,3.50
2018-04-27T08:11:54.845Z,3.30
2018-04-27T08:14:22.387Z,3.47
2018-04-27T08:16:49.979Z,3.23
2018-04-27T08:19:17.535Z,4.10
2018-04-27T08:21:45.109Z,4.10
2018-04-27T08:24:12.675Z,4.30
2018-04-27T08:26:40.252Z,3.70
2018-04-27T08:29:07.788Z,3.47
2018-04-27T08:31:35.389Z,3.10
2018-04-27T08:34:02.921Z,3.80
2018-04-27T08:36:30.470Z,3.40
2018-04-27T08:38:58.019Z,3.67
2018-04-27T08:41:25.583Z,4.07
2018-04-27T08:43:53.174Z,3.90
2018-04-27T08:46:20.808Z,3.90
2018-04-27T08:48:49.163Z,3.80
2018-04-27T08:51:16.827Z,3.67
2018-04-27T08:53:44.386Z,3.70
2018-04-27T08:56:11.986Z,3.47
2018-04-27T08:58:39.667Z,3.90
2018-04-27T09:01:07.353Z,3.90
2018-04-27T09:03:34.922Z,3.80
2018-04-27T09:06:02.479Z,3.73
2018-04-27T09:08:30.111Z,3.63
2018-04-27T09:10:57.687Z,3.50
2018-04-27T09:13:25.987Z,4.23
2018-04-27T09:15:53.646Z,3.73
2018-04-27T09:18:21.290Z,3.53
2018-04-27T09:20:48.916Z,3.70
2018-04-27T09:23:16.486Z,3.73
2018-04-27T09:25:44.114Z,4.00
2018-04-27T09:28:12.470Z,3.73
2018-04-27T09:30:40.986Z,3.77
2018-04-27T09:33:08.577Z,3.57
2018-04-27T09:35:36.235Z,3.50
2018-04-27T09:38:04.616Z,3.03
2018-04-27T09:40:32.281Z,3.30
2018-04-27T09:43:00.103Z,3.60
2018-04-27T09:45:27.828Z,3.27
2018-04-27T09:47:56.287Z,3.90
2018-04-27T09:50:23.838Z,3.53
2018-04-27T09:52:51.525Z,2.77
2018-04-27T09:55:19.156Z,2.80
2018-04-27T09:57:46.816Z,3.13
2018-04-27T10:00:14.403Z,4.00
2018-04-27T10:02:41.941Z,3.00
2018-04-27T10:05:09.592Z,3.20
2018-04-27T10:07:37.290Z,3.20
2018-04-27T10:10:04.839Z,3.47
2018-04-27T10:12:32.475Z,2.97
2018-04-27T10:15:00.081Z,3.20
2018-04-27T10:17:27.675Z,3.07
2018-04-27T10:19:56.007Z,2.60
2018-04-27T10:22:23.546Z,2.97
2018-04-27T10:24:51.066Z,3.00
2018-04-27T10:27:19.388Z,3.03
2018-04-27T10:29:46.949Z,3.27
2018-04-27T10:32:14.521Z,3.30
2018-04-27T10:34:42.078Z,3.17
2018-04-27T10:37:09.646Z,2.90
2018-04-27T10:39:37.206Z,2.77
2018-04-27T10:42:04.804Z,2.50
2018-04-27T10:44:32.403Z,2.97
2018-04-27T10:46:59.972Z,2.60
2018-04-27T10:49:27.519Z,2.30
2018-04-27T10:51:55.810Z,2.43
2018-04-27T10:54:23.395Z,2.63
2018-04-27T10:56:50.924Z,2.40
2018-04-27T10:59:18.496Z,3.40
2018-04-27T11:01:46.039Z,2.60
2018-04-27T11:04:13.581Z,2.97
2018-04-27T11:06:41.933Z,3.00
2018-04-27T11:09:09.632Z,2.57
2018-04-27T11:11:37.271Z,3.00
2018-04-27T11:14:04.804Z,2.43
2018-04-27T11:16:32.392Z,2.90
2018-04-27T11:18:59.996Z,2.97
2018-04-27T11:21:27.532Z,2.67
2018-04-27T11:23:55.827Z,3.40
2018-04-27T11:26:23.375Z,2.77
2018-04-27T11:28:50.959Z,2.90
2018-04-27T11:31:18.584Z,2.73
2018-04-27T11:33:46.903Z,2.90
2018-04-27T11:36:14.463Z,3.93
2018-04-27T11:38:42.031Z,3.00
2018-04-27T11:41:09.642Z,2.80
2018-04-27T11:43:37.988Z,2.80
2018-04-27T11:46:05.596Z,2.77
2018-04-27T11:48:33.142Z,2.63
2018-04-27T11:51:01.434Z,2.80
2018-04-27T11:53:29.769Z,2.87
2018-04-27T11:55:57.353Z,2.93
2018-04-27T11:58:25.641Z,3.23
2018-04-27T12:00:53.213Z,3.20
2018-04-27T12:03:20.758Z,3.57
2018-04-27T12:05:48.340Z,2.87
2018-04-27T12:08:15.924Z,2.67
2018-04-27T12:10:43.526Z,2.73
2018-04-27T12:13:10.999Z,3.00
2018-04-27T12:15:38.537Z,2.93
2018-04-27T12:18:06.090Z,3.00
2018-04-27T12:20:34.395Z,2.70
2018-04-27T12:23:01.920Z,2.70
2018-04-27T12:25:29.442Z,2.83
2018-04-27T12:27:57.003Z,3.03
2018-04-27T12:30:24.556Z,2.70
2018-04-27T12:32:52.251Z,2.40
2018-04-27T12:35:19.823Z,2.90
2018-04-27T12:37:48.192Z,2.57
2018-04-27T12:40:15.791Z,2.43
2018-04-27T12:42:43.500Z,2.77
2018-04-27T12:45:11.037Z,2.57
2018-04-27T12:47:38.562Z,2.50
2018-04-27T12:50:07.036Z,2.70
2018-04-27T12:52:35.487Z,2.40
2018-04-27T12:55:03.013Z,2.70
2018-04-27T12:57:30.560Z,2.30
2018-04-27T12:59:58.153Z,3.07
2018-04-27T13:02:26.117Z,2.50
2018-04-27T13:04:53.782Z,3.00
2018-04-27T13:07:21.372Z,2.60
2018-04-27T13:09:49.043Z,2.50
2018-04-27T13:12:16.606Z,2.83
2018-04-27T13:14:44.130Z,2.93
2018-04-27T13:17:11.668Z,3.17
2018-04-27T13:19:39.189Z,2.53
2018-04-27T13:22:07.554Z,2.40
2018-04-27T13:24:35.859Z,2.40
2018-04-27T13:27:04.245Z,2.47
2018-04-27T13:29:31.807Z,2.90
2018-04-27T13:31:59.417Z,2.63
2018-04-27T13:34:27.016Z,2.70
2018-04-27T13:36:54.727Z,2.17
2018-04-27T13:39:22.437Z,2.90
2018-04-27T13:41:51.038Z,2.73
2018-04-27T13:44:19.736Z,2.47
2018-04-27T13:46:47.401Z,2.97
2018-04-27T13:49:14.987Z,2.40
2018-04-27T13:51:42.567Z,2.37
2018-04-27T13:54:10.247Z,2.17
2018-04-27T13:56:37.930Z,2.47
2018-04-27T13:59:06.217Z,2.43
2018-04-27T14:01:34.523Z,2.03
2018-04-27T14:04:02.074Z,2.50
2018-04-27T14:06:29.974Z,2.73
2018-04-27T14:08:57.557Z,2.43
2018-04-27T14:11:25.156Z,2.37
2018-04-27T14:13:53.737Z,2.30
2018-04-27T14:16:21.545Z,2.67
2018-04-27T14:18:49.188Z,2.10
2018-04-27T14:21:16.719Z,2.47
2018-04-27T14:23:45.028Z,2.67
2018-04-27T14:26:12.560Z,1.93
2018-04-27T14:28:40.851Z,2.20
2018-04-27T14:31:08.428Z,2.00
2018-04-27T14:33:36.866Z,2.37
2018-04-27T14:36:04.398Z,2.20
2018-04-27T14:38:32.190Z,2.43
2018-04-27T14:40:59.815Z,2.40
2018-04-27T14:43:27.281Z,2.87
2018-04-27T14:45:54.842Z,2.30
2018-04-27T14:48:22.403Z,2.47
2018-04-27T14:50:49.947Z,1.93
2018-04-27T14:53:17.528Z,2.23
2018-04-27T14:55:45.097Z,2.40
2018-04-27T14:58:12.657Z,2.13
2018-04-27T15:00:40.249Z,2.60
2018-04-27T15:03:07.857Z,2.60
2018-04-27T15:05:38.320Z,2.67
2018-04-27T15:08:08.320Z,2.00
2018-04-27T15:10:43.211Z,2.60
2018-04-27T15:13:14.345Z,2.20
2018-04-27T15:15:45.832Z,2.43
2018-04-27T15:18:13.431Z,2.40
2018-04-27T15:20:41.690Z,2.30
2018-04-27T15:23:09.294Z,2.33
2018-04-27T15:25:36.847Z,2.60
2018-04-27T15:28:04.421Z,2.23
2018-04-27T15:30:31.996Z,2.40
2018-04-27T15:32:59.547Z,2.47
2018-04-27T15:35:27.122Z,2.60
2018-04-27T15:37:54.841Z,2.27
2018-04-27T15:40:22.380Z,2.53
2018-04-27T15:42:49.957Z,2.27
2018-04-27T15:45:17.517Z,2.10
2018-04-27T15:47:45.954Z,2.93
2018-04-27T15:50:13.491Z,2.80
2018-04-27T15:52:41.287Z,2.20
2018-04-27T15:55:08.865Z,2.50
2018-04-27T15:57:37.192Z,2.23
2018-04-27T16:00:04.757Z,2.73
2018-04-27T16:02:32.437Z,2.17
2018-04-27T16:04:59.992Z,2.47
2018-04-27T16:07:27.570Z,2.70
2018-04-27T16:09:55.213Z,2.03
2018-04-27T16:12:23.561Z,2.80
2018-04-27T16:14:51.270Z,2.43
2018-04-27T16:17:21.185Z,2.40
2018-04-27T16:19:48.805Z,2.43
2018-04-27T16:22:16.937Z,2.20
2018-04-27T16:24:45.266Z,2.40
2018-04-27T16:27:12.866Z,2.40
2018-04-27T16:29:41.211Z,2.30
2018-04-27T16:32:08.748Z,2.60
2018-04-27T16:34:36.312Z,2.73
2018-04-27T16:37:03.882Z,2.90
2018-04-27T16:39:31.433Z,2.20
2018-04-27T16:41:59.082Z,2.23
2018-04-27T16:44:26.605Z,2.43
2018-04-27T16:46:54.195Z,2.30
2018-04-27T16:49:21.819Z,2.20
2018-04-27T16:51:50.348Z,2.30
2018-04-27T16:54:17.907Z,2.40
2018-04-27T16:56:45.461Z,2.60
2018-04-27T16:59:13.026Z,2.83
2018-04-27T17:01:40.896Z,2.40
2018-04-27T17:04:08.532Z,2.43
2018-04-27T17:06:36.843Z,2.80
2018-04-27T17:09:04.464Z,2.60
2018-04-27T17:11:32.780Z,2.30
2018-04-27T17:14:00.325Z,2.53
2018-04-27T17:16:27.901Z,2.27
2018-04-27T17:18:55.455Z,2.40
2018-04-27T17:21:23.030Z,2.60
2018-04-27T17:23:50.709Z,2.43
2018-04-27T17:26:18.321Z,2.90
2018-04-27T17:28:46.691Z,3.37
2018-04-27T17:31:14.212Z,2.60
2018-04-27T17:33:41.781Z,2.80
2018-04-27T17:36:09.315Z,2.60
2018-04-27T17:38:37.085Z,2.47
2018-04-27T17:41:04.656Z,2.40
2018-04-27T17:43:33.152Z,2.57
2018-04-27T17:46:00.681Z,2.60
2018-04-27T17:48:28.426Z,2.50
2018-04-27T17:50:56.023Z,2.80
2018-04-27T17:53:23.706Z,2.33
2018-04-27T17:55:51.225Z,2.37
2018-04-27T17:58:18.774Z,2.20
2018-04-27T18:00:46.519Z,2.80
2018-04-27T18:03:14.113Z,2.90
2018-04-27T18:05:41.717Z,2.67
2018-04-27T18:08:09.345Z,2.67
2018-04-27T18:10:37.385Z,2.43
2018-04-27T18:13:05.786Z,2.57
2018-04-27T18:15:34.272Z,2.03
2018-04-27T18:18:01.958Z,2.37
2018-04-27T18:20:29.440Z,2.50
2018-04-27T18:22:57.024Z,2.50
2018-04-27T18:25:24.646Z,2.30
2018-04-27T18:27:52.899Z,2.70
2018-04-27T18:30:20.444Z,2.33
2018-04-27T18:32:48.189Z,2.63
2018-04-27T18:35:15.619Z,2.57
2018-04-27T18:37:43.265Z,2.70
2018-04-27T18:40:11.257Z,2.27
2018-04-27T18:42:38.873Z,2.20
2018-04-27T18:45:07.207Z,2.20
2018-04-27T18:47:34.832Z,2.60
2018-04-27T18:50:02.432Z,2.67
2018-04-27T18:52:29.980Z,2.50
2018-04-27T18:55:11.295Z,2.83
2018-04-27T18:57:38.921Z,2.90
2018-04-27T19:00:06.557Z,2.30
2018-04-27T19:02:34.855Z,2.70
2018-04-27T19:05:03.246Z,2.77
2018-04-27T19:07:30.895Z,2.53
2018-04-27T19:09:59.462Z,2.60
2018-04-27T19:12:26.978Z,2.70
2018-04-27T19:14:54.696Z,2.70
2018-04-27T19:17:23.013Z,2.53
2018-04-27T19:19:50.634Z,2.30
2018-04-27T19:22:19.968Z,2.40
2018-04-27T19:24:47.550Z,2.67
2018-04-27T19:27:15.118Z,2.37
2018-04-27T19:29:42.720Z,2.50
2018-04-27T19:32:10.256Z,3.10
2018-04-27T19:34:37.813Z,2.97
2018-04-27T19:37:05.360Z,3.13
2018-04-27T19:39:33.031Z,3.43
2018-04-27T19:42:00.594Z,2.77
2018-04-27T19:44:28.367Z,3.20
2018-04-27T19:46:55.940Z,3.03
2018-04-27T19:49:23.559Z,2.70
2018-04-27T19:51:51.912Z,3.00
2018-04-27T19:54:19.536Z,3.07
2018-04-27T19:56:48.288Z,2.97
2018-04-27T19:59:15.889Z,2.87
2018-04-27T20:01:43.420Z,2.70
2018-04-27T20:04:11.738Z,3.60
2018-04-27T20:06:39.984Z,3.20
2018-04-27T20:09:07.643Z,3.40
2018-04-27T20:11:35.255Z,3.37
2018-04-27T20:14:02.975Z,3.50
2018-04-27T20:16:36.677Z,3.73
2018-04-27T20:19:08.863Z,3.97
2018-04-27T20:21:37.219Z,3.80
2018-04-27T20:24:05.673Z,3.50
2018-04-27T20:26:33.414Z,3.77
2018-04-27T20:29:01.083Z,3.43
2018-04-27T20:31:28.707Z,3.20
2018-04-27T20:33:57.037Z,3.80
2018-04-27T20:36:24.598Z,4.70
2018-04-27T20:38:52.258Z,3.90
2018-04-27T20:41:19.943Z,3.70
2018-04-27T20:43:48.351Z,4.30
2018-04-27T20:46:17.806Z,3.60
2018-04-27T20:48:46.707Z,3.77
2018-04-27T20:51:14.264Z,4.23
2018-04-27T20:53:41.888Z,4.30
2018-04-27T20:56:09.426Z,4.17
2018-04-27T20:58:37.717Z,4.27
2018-04-27T21:01:06.123Z,3.97
2018-04-27T21:03:33.681Z,4.20
2018-04-27T21:06:01.244Z,4.10
2018-04-27T21:08:28.949Z,4.50
2018-04-27T21:10:56.522Z,3.77
2018-04-27T21:13:24.842Z,4.03
2018-04-27T21:15:52.393Z,4.23
2018-04-27T21:18:19.915Z,3.43
2018-04-27T21:20:47.480Z,3.87
2018-04-27T21:23:15.803Z,4.17
2018-04-27T21:25:43.501Z,4.10
2018-04-27T21:28:21.673Z,4.20
2018-04-27T21:30:49.289Z,4.23
2018-04-27T21:33:18.211Z,4.17
2018-04-27T21:36:04.152Z,4.27
2018-04-27T21:38:39.102Z,3.87
2018-04-27T21:44:09.229Z,4.43
2018-04-27T21:46:36.716Z,4.13
2018-04-27T21:49:06.720Z,5.20
2018-04-27T21:51:34.213Z,4.43
2018-04-27T21:54:05.210Z,4.53
2018-04-27T21:56:32.696Z,4.70
2018-04-27T21:59:00.168Z,4.27
2018-04-27T22:01:30.679Z,4.13
2018-04-27T22:04:07.619Z,5.33
2018-04-27T22:06:35.106Z,5.07
2018-04-27T22:09:04.044Z,4.67
2018-04-27T22:11:37.315Z,5.53
2018-04-27T22:14:04.788Z,4.57
2018-04-27T22:16:38.996Z,4.93
2018-04-27T22:19:07.278Z,5.07
2018-04-27T22:21:45.571Z,4.47
2018-04-27T22:24:14.775Z,5.07
2018-04-27T22:26:44.895Z,5.30
2018-04-27T22:29:28.928Z,5.23
2018-04-27T22:31:59.231Z,4.40
2018-04-27T22:34:27.624Z,5.03
2018-04-27T22:36:55.097Z,4.47
2018-04-27T22:39:40.454Z,4.67
2018-04-27T22:42:25.327Z,4.70
2018-04-27T22:45:00.354Z,4.97
2018-04-27T22:47:32.123Z,4.80
2018-04-27T22:49:59.582Z,4.93
2018-04-27T22:52:33.742Z,5.50
2018-04-27T22:55:01.215Z,5.23
2018-04-27T23:00:30.634Z,5.00
2018-04-27T23:02:58.148Z,4.70
2018-04-27T23:05:35.056Z,4.97
2018-04-27T23:08:02.560Z,4.87
2018-04-27T23:13:32.652Z,5.73
2018-04-27T23:16:00.886Z,5.87
2018-04-27T23:18:43.950Z,5.40
2018-04-27T23:21:14.084Z,5.87
2018-04-27T23:23:41.591Z,5.50
2018-04-27T23:26:09.066Z,5.30
2018-04-27T23:28:36.545Z,5.20
2018-04-27T23:31:04.012Z,5.30
2018-04-27T23:33:31.482Z,5.40
2018-04-27T23:35:58.971Z,5.47
2018-04-27T23:38:28.270Z,5.30
2018-04-27T23:41:07.039Z,5.47
2018-04-27T23:43:34.512Z,5.57
2018-04-27T23:46:01.989Z,5.17
2018-04-27T23:48:29.462Z,6.73
2018-04-27T23:50:57.723Z,5.80
2018-04-27T23:53:25.190Z,5.50
2018-04-27T23:55:52.663Z,6.37
2018-04-27T23:58:22.883Z,6.10
